Miho Air Base, Japan

8:31 AM JST on July 31, 2016 (GMT +0900)
Malaya Proletarskaya ulitsa | | Change Station

Elev 0 ft 35.50 °N, 133.23 °E | Updated 6 minutes ago

Mostly Cloudy
Mostly Cloudy
82.2 °F
Feels Like 91 °F
N
1.2
Wind Variable Wind from SW
Gusts 3.1 mph

Today
High -- | Low -- °F
--% Chance of Precip.
Yesterday
High -- | Low -- °F
Precip. -- in
Pressure 29.89 in
Visibility 6.2 miles
Clouds Few 3000 ft
Scattered Clouds 3500 ft
Mostly Cloudy 7000 ft
Heat Index 91 °F
Dew Point 77 °F
Humidity 85%
Rainfall 0.00 in
Snow Depth Not available.
5:14 AM 7:11 PM
Waning Crescent, 10% visible
METAR RJOH 302300Z 05003KT 020V080 9999 FEW030 SCT035 BKN070 28/23 Q1012
Pressure 29.89 in
Visibility 6.2 miles
Clouds Few 3000 ft
Scattered Clouds 3500 ft
Mostly Cloudy 7000 ft
Heat Index 91 °F
Dew Point 77 °F
Humidity 85%
Rainfall 0.00 in
Snow Depth Not available.
5:14 AM 7:11 PM
Waning Crescent, 10% visible
METAR RJOH 302300Z 05003KT 020V080 9999 FEW030 SCT035 BKN070 28/23 Q1012

10-Day Weather Forecast

No radar image for this location.
×

Almanac

Astronomy

Jul. 31, 2016 Rise Set
Actual Time
Civil Twilight
Nautical Twilight
Astronomical Twilight
Moon
Length of Visible Light
Length of Day
Tomorrow will be .
, % of the Moon is Illuminated

Today's Extremes

Country Highs Country Lows

Community

WunderPhotos

Upload Photos

1,928,675 photos uploaded!

WunderBlog® & News

Nearby

Air Quality

  Air Quality AQ Index Pollutant
Not available.

Snow Depth

Station Depth Elevation

Earthquake Activity

City Distance Mag. Time & Date
Minimum magnitude displayed is 2.5.

Coastal Water Temperatures

Place Temperature

Stations

Nearby Weather Stations

Station Location Temp. Windchill Dew Point Humidity Wind Precip. Elev Updated Type